createdAt,value
2018-12-01T00:02:15.199Z,97027.30
2018-12-01T00:07:09.771Z,97025.59
2018-12-01T00:12:04.353Z,97022.18
2018-12-01T00:16:58.967Z,97022.38
2018-12-01T00:21:53.578Z,97021.67
2018-12-01T00:26:48.241Z,97020.09
2018-12-01T00:31:42.811Z,97019.78
2018-12-01T00:36:37.363Z,97014.36
2018-12-01T00:41:31.892Z,97024.39
2018-12-01T00:46:26.463Z,97027.59
2018-12-01T00:51:20.976Z,97024.68
2018-12-01T00:56:15.490Z,97022.17
2018-12-01T01:01:10.044Z,97033.99
2018-12-01T01:06:04.636Z,97027.39
2018-12-01T01:10:59.201Z,97043.66
2018-12-01T01:15:53.714Z,97046.98
2018-12-01T01:20:48.335Z,97051.57
2018-12-01T01:25:42.798Z,97055.87
2018-12-01T01:30:37.299Z,97051.87
2018-12-01T01:35:31.875Z,97065.85
2018-12-01T01:40:26.379Z,97067.05
2018-12-01T01:45:21.295Z,97061.73
2018-12-01T01:50:20.651Z,97070.47
2018-12-01T01:55:15.247Z,97069.08
2018-12-01T02:00:19.228Z,97071.07
2018-12-01T02:05:15.106Z,97063.83
2018-12-01T02:10:10.960Z,97062.45
2018-12-01T02:15:06.668Z,97058.63
2018-12-01T02:20:01.143Z,97049.67
2018-12-01T02:24:55.625Z,97048.78
2018-12-01T02:29:50.200Z,97050.38
2018-12-01T02:34:44.764Z,97044.26
2018-12-01T02:39:39.213Z,97049.75
2018-12-01T02:45:05.824Z,97052.06
2018-12-01T02:50:00.289Z,97039.83
2018-12-01T02:54:54.775Z,97045.84
2018-12-01T02:59:49.323Z,97052.27
2018-12-01T03:04:43.939Z,97049.34
2018-12-01T03:09:38.402Z,97056.45
2018-12-01T03:14:32.855Z,97068.36
2018-12-01T03:19:27.335Z,97068.47
2018-12-01T03:24:21.831Z,97070.59
2018-12-01T03:29:16.333Z,97080.25
2018-12-01T03:34:10.883Z,97089.79
2018-12-01T03:39:08.521Z,97089.44
2018-12-01T03:44:03.035Z,97091.46
2018-12-01T03:48:57.498Z,97092.94
2018-12-01T03:53:52.045Z,97100.13
2018-12-01T03:58:46.511Z,97096.55
2018-12-01T04:03:42.355Z,97094.24
2018-12-01T04:08:37.080Z,97089.86
2018-12-01T04:13:31.632Z,97096.48
2018-12-01T04:18:26.130Z,97090.00
2018-12-01T04:23:20.805Z,97096.89
2018-12-01T04:28:15.361Z,97090.64
2018-12-01T04:33:09.851Z,97088.55
2018-12-01T04:38:04.471Z,97079.20
2018-12-01T04:42:58.955Z,97080.98
2018-12-01T04:47:53.444Z,97083.28
2018-12-01T04:52:49.381Z,97075.34
2018-12-01T04:57:43.932Z,97075.67
2018-12-01T05:02:38.605Z,97075.50
2018-12-01T05:07:33.144Z,97071.11
2018-12-01T05:12:27.683Z,97081.34
2018-12-01T05:17:22.167Z,97075.39
2018-12-01T05:22:16.720Z,97081.81
2018-12-01T05:27:11.302Z,97084.23
2018-12-01T05:32:06.743Z,97078.75
2018-12-01T05:37:01.274Z,97082.45
2018-12-01T05:41:55.764Z,97081.98
2018-12-01T05:46:50.292Z,97084.42
2018-12-01T05:51:44.851Z,97083.02
2018-12-01T05:56:39.354Z,97084.52
2018-12-01T06:01:33.907Z,97088.92
2018-12-01T06:06:28.444Z,97090.95
2018-12-01T06:11:22.995Z,97094.96
2018-12-01T06:16:17.495Z,97097.05
2018-12-01T06:21:11.969Z,97101.48
2018-12-01T06:26:06.502Z,97107.59
2018-12-01T06:31:01.795Z,97105.66
2018-12-01T06:35:56.331Z,97108.70
2018-12-01T06:40:50.797Z,97121.73
2018-12-01T06:45:45.328Z,97118.33
2018-12-01T06:50:39.839Z,97121.33
2018-12-01T06:55:34.427Z,97135.45
2018-12-01T07:00:28.986Z,97136.24
2018-12-01T07:05:23.474Z,97140.48
2018-12-01T07:10:21.610Z,97142.56
2018-12-01T07:15:20.697Z,97139.47
2018-12-01T07:20:15.350Z,97150.02
2018-12-01T07:25:09.858Z,97154.14
2018-12-01T07:30:05.223Z,97155.18
2018-12-01T07:34:59.728Z,97159.20
2018-12-01T07:39:54.292Z,97163.23
2018-12-01T07:44:48.818Z,97161.59
2018-12-01T07:49:43.415Z,97160.87
2018-12-01T07:54:37.895Z,97164.98
2018-12-01T07:59:32.391Z,97164.81
2018-12-01T08:04:26.887Z,97169.09
2018-12-01T08:09:21.439Z,97158.16
2018-12-01T08:14:15.944Z,97155.06
2018-12-01T08:19:10.467Z,97150.31
2018-12-01T08:24:05.160Z,97151.22
2018-12-01T08:28:59.664Z,97148.83
2018-12-01T08:33:54.296Z,97152.23
2018-12-01T08:38:48.787Z,97143.89
2018-12-01T08:43:43.311Z,97146.69
2018-12-01T08:48:37.844Z,97155.02
2018-12-01T08:53:32.364Z,97150.91
2018-12-01T08:58:26.805Z,97158.22
2018-12-01T09:03:23.975Z,97147.86
2018-12-01T09:08:18.644Z,97153.00
2018-12-01T09:13:13.268Z,97141.02
2018-12-01T09:18:07.864Z,97132.81
2018-12-01T09:23:02.375Z,97125.03
2018-12-01T09:27:56.914Z,97124.24
2018-12-01T09:32:51.422Z,97125.64
2018-12-01T09:37:45.956Z,97119.49
2018-12-01T09:42:40.536Z,97122.55
2018-12-01T09:47:35.027Z,97113.45
2018-12-01T09:52:29.523Z,97108.92
2018-12-01T09:57:24.010Z,97106.66
2018-12-01T10:02:18.515Z,97104.59
2018-12-01T10:07:13.069Z,97092.22
2018-12-01T10:12:07.619Z,97081.02
2018-12-01T10:17:02.104Z,97088.63
2018-12-01T10:21:56.627Z,97074.13
2018-12-01T10:26:51.121Z,97075.07
2018-12-01T10:31:45.673Z,97067.88
2018-12-01T10:36:40.144Z,97065.52
2018-12-01T10:41:34.662Z,97075.52
2018-12-01T10:46:29.215Z,97077.09
2018-12-01T10:51:23.831Z,97076.79
2018-12-01T10:56:18.394Z,97069.23
2018-12-01T11:01:18.212Z,97067.31
2018-12-01T11:06:15.335Z,97070.83
2018-12-01T11:11:10.299Z,97072.92
2018-12-01T11:16:06.054Z,97068.67
2018-12-01T11:21:00.559Z,97072.51
2018-12-01T11:25:55.350Z,97076.05
2018-12-01T11:30:49.916Z,97075.88
2018-12-01T11:35:44.474Z,97068.30
2018-12-01T11:40:39.027Z,97059.73
2018-12-01T11:45:33.543Z,97062.73
2018-12-01T11:50:28.134Z,97053.62
2018-12-01T11:55:24.033Z,97048.88
2018-12-01T12:00:25.075Z,97054.87
2018-12-01T12:05:19.614Z,97050.48
2018-12-01T12:10:14.452Z,97048.20
2018-12-01T12:15:11.102Z,97041.08
2018-12-01T12:20:07.900Z,97036.28
2018-12-01T12:25:02.547Z,97041.74
2018-12-01T12:29:57.360Z,97028.55
2018-12-01T12:34:51.995Z,97024.38
2018-12-01T12:39:46.501Z,97022.48
2018-12-01T12:44:41.018Z,97034.45
2018-12-01T12:49:35.563Z,97030.51
2018-12-01T12:54:30.225Z,97027.54
2018-12-01T12:59:24.793Z,97022.56
2018-12-01T13:04:19.299Z,97025.69
2018-12-01T13:09:13.988Z,97024.00
2018-12-01T13:14:08.706Z,97023.49
2018-12-01T13:19:03.277Z,97024.13
2018-12-01T13:23:57.866Z,97026.45
2018-12-01T13:28:52.700Z,97005.70
2018-12-01T13:33:47.427Z,97000.63
2018-12-01T13:38:42.021Z,96993.14
2018-12-01T13:43:36.677Z,96980.09
2018-12-01T13:48:31.261Z,96976.30
2018-12-01T13:53:25.808Z,96983.42
2018-12-01T13:58:20.343Z,96972.22
2018-12-01T14:03:14.862Z,96960.25
2018-12-01T14:08:09.403Z,96960.13
2018-12-01T14:13:07.903Z,96961.93
2018-12-01T14:18:02.371Z,96965.50
2018-12-01T14:22:56.899Z,96965.95
2018-12-01T14:27:57.863Z,96969.42
2018-12-01T14:32:52.555Z,96973.19
2018-12-01T14:37:50.852Z,96973.33
2018-12-01T14:42:45.555Z,96978.80
2018-12-01T14:47:40.234Z,96975.84
2018-12-01T14:52:34.776Z,96968.95
2018-12-01T14:57:29.272Z,96964.70
2018-12-01T15:02:23.784Z,96956.44
2018-12-01T15:07:18.296Z,96962.86
2018-12-01T15:12:12.912Z,96957.41
2018-12-01T15:17:07.503Z,96958.24
2018-12-01T15:22:02.003Z,96965.34
2018-12-01T15:26:56.535Z,96956.62
2018-12-01T15:31:51.082Z,96959.67
2018-12-01T15:36:45.688Z,96957.39
2018-12-01T15:41:40.440Z,96959.42
2018-12-01T15:46:35.071Z,96953.89
2018-12-01T15:51:29.587Z,96957.63
2018-12-01T15:56:24.073Z,96959.80
2018-12-01T16:01:18.879Z,96944.94
2018-12-01T16:06:13.403Z,96940.74
2018-12-01T16:11:08.031Z,96939.33
2018-12-01T16:16:07.277Z,96946.19
2018-12-01T16:21:02.127Z,96945.98
2018-12-01T16:25:56.663Z,96948.88
2018-12-01T16:30:51.286Z,96947.27
2018-12-01T16:35:45.988Z,96952.50
2018-12-01T16:40:48.623Z,96955.41
2018-12-01T16:45:44.697Z,96956.59
2018-12-01T16:50:39.394Z,96959.87
2018-12-01T16:55:34.001Z,96950.23
2018-12-01T17:00:28.792Z,96942.52
2018-12-01T17:05:25.675Z,96946.49
2018-12-01T17:10:22.147Z,96950.27
2018-12-01T17:15:20.519Z,96938.28
2018-12-01T17:20:16.194Z,96936.70
2018-12-01T17:25:13.676Z,96939.89
2018-12-01T17:30:30.836Z,96932.70
2018-12-01T17:35:29.375Z,96929.47
2018-12-01T17:40:31.876Z,96926.92
2018-12-01T17:45:26.452Z,96921.91
2018-12-01T17:50:21.249Z,96921.34
2018-12-01T17:55:17.043Z,96916.91
2018-12-01T18:00:16.446Z,96913.94
2018-12-01T18:05:15.036Z,96917.78
2018-12-01T18:10:13.035Z,96914.84
2018-12-01T18:15:16.023Z,96910.40
2018-12-01T18:20:18.844Z,96889.86
2018-12-01T18:25:13.646Z,96901.70
2018-12-01T18:30:14.881Z,96896.24
2018-12-01T18:35:10.117Z,96889.59
2018-12-01T18:40:12.492Z,96885.02
2018-12-01T18:45:13.658Z,96877.02
2018-12-01T18:50:14.098Z,96874.14
2018-12-01T18:55:12.952Z,96871.44
2018-12-01T19:00:16.161Z,96866.95
2018-12-01T19:05:10.919Z,96864.59
2018-12-01T19:10:10.327Z,96851.22
2018-12-01T19:15:05.461Z,96840.42
2018-12-01T19:20:00.076Z,96847.86
2018-12-01T19:24:54.828Z,96844.61
2018-12-01T19:29:49.754Z,96843.03
2018-12-01T19:34:44.436Z,96841.11
2018-12-01T19:39:39.075Z,96845.64
2018-12-01T19:44:33.727Z,96839.33
2018-12-01T19:49:28.435Z,96835.52
2018-12-01T19:54:23.074Z,96833.91
2018-12-01T19:59:17.736Z,96835.94
2018-12-01T20:04:12.446Z,96830.52
2018-12-01T20:09:09.188Z,96822.70
2018-12-01T20:14:04.951Z,96817.91
2018-12-01T20:18:59.590Z,96811.88
2018-12-01T20:23:54.271Z,96815.16
2018-12-01T20:28:48.928Z,96811.49
2018-12-01T20:33:43.675Z,96808.48
2018-12-01T20:39:43.832Z,96803.75
2018-12-01T20:44:39.071Z,96798.95
2018-12-01T20:49:33.707Z,96789.45
2018-12-01T20:54:36.340Z,96784.03
2018-12-01T20:59:30.932Z,96779.44
2018-12-01T21:04:25.595Z,96789.93
2018-12-01T21:09:20.246Z,96789.73
2018-12-01T21:14:14.902Z,96790.34
2018-12-01T21:19:09.551Z,96780.81
2018-12-01T21:24:04.161Z,96777.59
2018-12-01T21:28:58.779Z,96768.38
2018-12-01T21:33:53.521Z,96766.18
2018-12-01T21:38:48.114Z,96748.72
2018-12-01T21:43:42.737Z,96757.24
2018-12-01T21:48:37.369Z,96765.67
2018-12-01T21:53:32.103Z,96765.59
2018-12-01T21:58:26.834Z,96766.58
2018-12-01T22:03:21.891Z,96765.20
2018-12-01T22:08:17.519Z,96755.19
2018-12-01T22:13:12.487Z,96766.19
2018-12-01T22:18:07.388Z,96756.98
2018-12-01T22:23:02.703Z,96741.75
2018-12-01T22:27:57.398Z,96741.92
2018-12-01T22:32:56.919Z,96750.36
2018-12-01T22:37:52.390Z,96752.47
2018-12-01T22:42:47.035Z,96740.63
2018-12-01T22:47:41.858Z,96744.14
2018-12-01T22:52:36.573Z,96739.45
2018-12-01T22:57:31.223Z,96736.14
2018-12-01T23:02:25.978Z,96718.59
2018-12-01T23:07:20.562Z,96701.84
2018-12-01T23:12:15.238Z,96691.83
2018-12-01T23:17:09.859Z,96695.33
2018-12-01T23:22:04.559Z,96698.97
2018-12-01T23:26:59.914Z,96687.53
2018-12-01T23:31:54.475Z,96688.42
2018-12-01T23:36:49.031Z,96684.01
2018-12-01T23:41:43.552Z,96675.91
2018-12-01T23:46:38.174Z,96668.20
2018-12-01T23:51:32.762Z,96669.28
2018-12-01T23:56:27.650Z,96659.75
